Time;durP1;ratioP1;P1;durP2;ratioP2;P2;SDS_P1;SDS_P2;PMS_P1;PMS_P2;Temp;Humidity;BMP_temperature;BMP_pressure;BME280_temperature;BME280_humidity;BME280_pressure;Samples;Min_cycle;Max_cycle;Signal;HPM_P1;HPM_P2
2022/01/19 00:01:20;;;;;;;16.23;4.45;;;;;;;-3.14;100.00;100493.88;4484284;31;20458;-71
2022/01/19 00:03:48;;;;;;;13.25;4.28;;;;;;;-3.03;99.86;100483.56;4484254;31;20085;-71
2022/01/19 00:06:15;;;;;;;11.68;4.18;;;;;;;-3.10;100.00;100480.19;4484402;31;20156;-71
2022/01/19 00:08:42;;;;;;;16.87;4.65;;;;;;;-3.06;100.00;100471.63;4484261;31;20092;-71
2022/01/19 00:11:10;;;;;;;19.62;4.95;;;;;;;-3.05;99.78;100475.03;4484189;32;20419;-71
2022/01/19 00:13:37;;;;;;;12.00;4.80;;;;;;;-3.00;99.73;100472.44;4484316;31;20476;-71
2022/01/19 00:16:05;;;;;;;15.30;5.43;;;;;;;-3.10;99.87;100487.87;4482890;32;20104;-71
2022/01/19 00:18:33;;;;;;;23.27;5.28;;;;;;;-3.08;100.00;100482.75;4484036;31;20096;-71
2022/01/19 00:21:00;;;;;;;10.60;4.18;;;;;;;-3.14;100.00;100496.44;4483875;31;20144;-71
2022/01/19 00:23:27;;;;;;;8.00;3.22;;;;;;;-3.23;100.00;100488.78;4483860;32;20108;-71
2022/01/19 00:25:55;;;;;;;16.70;4.28;;;;;;;-3.11;100.00;100488.72;4483949;31;20155;-71
2022/01/19 00:28:23;;;;;;;9.95;4.00;;;;;;;-3.07;100.00;100487.03;4483825;32;20156;-71
2022/01/19 00:30:50;;;;;;;25.90;5.68;;;;;;;-3.01;99.82;100491.22;4484246;31;20096;-71
2022/01/19 00:33:21;;;;;;;17.45;5.03;;;;;;;-3.05;99.70;100509.19;4483803;31;20127;-71
2022/01/19 00:35:49;;;;;;;16.15;4.97;;;;;;;-3.08;99.97;100503.25;4483832;31;20578;-71
2022/01/19 00:38:16;;;;;;;12.75;4.57;;;;;;;-3.15;100.00;100507.56;4483852;31;20087;-71
2022/01/19 00:40:44;;;;;;;15.05;4.75;;;;;;;-3.10;100.00;100510.94;4483681;32;20123;-71
2022/01/19 00:43:13;;;;;;;15.70;4.82;;;;;;;-3.05;99.94;100504.06;4483806;31;20115;-71
2022/01/19 00:45:41;;;;;;;13.80;4.15;;;;;;;-3.03;99.86;100504.94;4483821;31;20159;-71
2022/01/19 00:48:24;;;;;;;12.10;3.67;;;;;;;-3.10;100.00;100493.00;4483882;31;20821;-71
2022/01/19 00:50:51;;;;;;;18.48;4.20;;;;;;;-3.08;100.00;100510.94;4483855;31;20105;-71
2022/01/19 00:53:18;;;;;;;17.70;5.37;;;;;;;-3.11;100.00;100511.78;4483434;32;20539;-71
2022/01/19 00:55:46;;;;;;;19.70;5.43;;;;;;;-3.12;100.00;100507.56;4483542;31;20096;-71
2022/01/19 00:58:13;;;;;;;25.62;5.53;;;;;;;-3.16;100.00;100503.28;4483736;31;20083;-71
2022/01/19 01:00:40;;;;;;;11.93;3.72;;;;;;;-3.24;100.00;100513.59;4485587;31;20100;-71
2022/01/19 01:03:09;;;;;;;17.75;5.87;;;;;;;-3.16;100.00;100510.97;4485993;31;20443;-71
2022/01/19 01:05:37;;;;;;;20.42;4.97;;;;;;;-3.25;100.00;100505.91;4485822;31;20152;-71
2022/01/19 01:08:05;;;;;;;15.77;4.62;;;;;;;-3.36;100.00;100505.94;4486043;31;20091;-71
2022/01/19 01:10:41;;;;;;;12.45;4.43;;;;;;;-3.37;100.00;100516.22;4485771;31;20151;-71
2022/01/19 01:13:21;;;;;;;21.05;5.45;;;;;;;-3.36;100.00;100515.34;4485943;31;20112;-71
2022/01/19 01:16:16;;;;;;;22.25;6.12;;;;;;;-3.31;100.00;100501.66;4485820;31;20095;-71
2022/01/19 01:18:43;;;;;;;16.53;5.53;;;;;;;-3.37;100.00;100500.84;4486334;31;20084;-71
2022/01/19 01:21:10;;;;;;;17.00;4.75;;;;;;;-3.43;100.00;100496.59;4485737;31;20096;-71
2022/01/19 01:23:38;;;;;;;16.60;4.60;;;;;;;-3.30;100.00;100482.88;4485743;31;20137;-71
2022/01/19 01:26:07;;;;;;;12.52;5.15;;;;;;;-3.32;100.00;100487.13;4486148;31;20434;-71
2022/01/19 01:28:35;;;;;;;14.32;4.45;;;;;;;-3.42;100.00;100486.31;4486066;31;20137;-71
2022/01/19 01:31:04;;;;;;;17.60;5.05;;;;;;;-3.36;100.00;100477.78;4486003;31;20102;-71
2022/01/19 01:33:31;;;;;;;11.35;4.65;;;;;;;-3.35;100.00;100458.09;4485854;31;20092;-71
2022/01/19 01:35:59;;;;;;;15.00;4.28;;;;;;;-3.36;100.00;100461.53;4486066;31;20511;-71
2022/01/19 01:38:26;;;;;;;15.75;5.22;;;;;;;-3.37;100.00;100453.00;4485699;31;20119;-71
2022/01/19 01:41:09;;;;;;;15.25;5.53;;;;;;;-3.38;100.00;100448.72;4485902;32;20076;-71
2022/01/19 01:43:36;;;;;;;13.43;5.10;;;;;;;-3.51;100.00;100460.75;4485882;31;20118;-71
2022/01/19 01:46:11;;;;;;;16.90;4.75;;;;;;;-3.58;100.00;100462.47;4485650;31;20583;-71
2022/01/19 01:48:44;;;;;;;15.02;5.00;;;;;;;-3.58;100.00;100457.34;4485861;31;20091;-71
2022/01/19 01:53:59;;;;;;;11.35;4.10;;;;;;;-3.66;100.00;100448.00;4485628;31;20083;-71
2022/01/19 01:56:26;;;;;;;18.37;4.00;;;;;;;-3.71;100.00;100444.59;4480981;32;105576;-71
2022/01/19 01:58:57;;;;;;;11.68;5.05;;;;;;;-3.73;100.00;100439.47;4485737;31;20161;-71
2022/01/19 02:01:31;;;;;;;18.30;5.30;;;;;;;-3.85;100.00;100440.37;4485559;31;20096;-71
2022/01/19 02:03:59;;;;;;;13.57;5.62;;;;;;;-3.77;100.00;100437.78;4485399;31;20111;-71
2022/01/19 02:06:33;;;;;;;20.52;5.30;;;;;;;-3.89;100.00;100435.25;4485343;31;20100;-71
2022/01/19 02:23:01;;;;;;;19.62;4.87;;;;;;;-4.09;100.00;100420.81;4451860;32;20192;-71
2022/01/19 02:25:34;;;;;;;12.70;4.78;;;;;;;-4.06;100.00;100409.72;4451727;32;20451;-71
2022/01/19 02:41:35;;;;;;;12.65;5.78;;;;;;;-4.23;100.00;100395.28;4451458;32;20119;-72
2022/01/19 02:44:03;;;;;;;19.20;5.30;;;;;;;-4.23;100.00;100392.72;4451640;32;20167;-72
2022/01/19 02:49:09;;;;;;;22.15;5.12;;;;;;;-4.26;100.00;100391.88;4451559;32;20127;-71
2022/01/19 02:49:20;;;;;;;20.50;5.50;;;;;;;-4.26;100.00;100385.03;4451787;32;20795;-71
2022/01/19 02:51:49;;;;;;;9.05;4.50;;;;;;;-4.36;100.00;100380.78;4462065;32;20097;-71
2022/01/19 02:54:19;;;;;;;20.50;5.37;;;;;;;-4.35;100.00;100372.28;4469591;32;20120;-72
2022/01/19 02:56:51;;;;;;;14.85;5.03;;;;;;;-4.27;100.00;100373.09;4469311;32;20448;-71
2022/01/19 02:59:30;;;;;;;21.95;5.35;;;;;;;-4.33;100.00;100373.97;4469535;32;20084;-72
2022/01/19 03:10:36;;;;;;;13.02;4.55;;;;;;;-4.08;100.00;100362.81;4466852;32;20146;-71
2022/01/19 03:13:04;;;;;;;22.02;5.50;;;;;;;-4.12;100.00;100357.72;4467011;32;20093;-72
2022/01/19 03:15:31;;;;;;;16.50;5.40;;;;;;;-4.12;100.00;100372.19;4467043;32;20125;-71
2022/01/19 03:18:00;;;;;;;15.60;4.60;;;;;;;-4.02;100.00;100361.06;4467305;32;20117;-72
2022/01/19 03:20:28;;;;;;;19.67;4.90;;;;;;;-3.88;100.00;100352.50;4463402;32;20125;-72
2022/01/19 03:23:05;;;;;;;19.52;4.28;;;;;;;-3.87;100.00;100354.22;4450490;32;20098;-72
2022/01/19 03:25:37;;;;;;;21.35;5.07;;;;;;;-3.93;100.00;100344.84;4451599;32;20128;-72
2022/01/19 03:28:05;;;;;;;17.50;4.87;;;;;;;-3.89;100.00;100348.22;4451278;32;20105;-72
2022/01/19 03:30:33;;;;;;;11.32;4.32;;;;;;;-3.89;100.00;100343.97;4451274;32;20116;-72
2022/01/19 03:33:01;;;;;;;13.48;4.68;;;;;;;-3.96;100.00;100342.28;4450993;32;20478;-72
2022/01/19 03:35:28;;;;;;;19.37;5.15;;;;;;;-3.93;100.00;100352.53;4451300;32;20077;-71
2022/01/19 03:37:56;;;;;;;11.70;4.65;;;;;;;-3.83;100.00;100349.06;4451349;32;20200;-72
2022/01/19 03:40:24;;;;;;;22.35;5.53;;;;;;;-3.76;100.00;100345.59;4452894;32;20156;-72
2022/01/19 03:42:51;;;;;;;12.25;4.72;;;;;;;-3.86;100.00;100349.06;4468966;32;20093;-71
2022/01/19 03:45:20;;;;;;;19.77;6.22;;;;;;;-3.77;100.00;100351.59;4469181;32;20097;-71
2022/01/19 03:48:13;;;;;;;16.12;5.43;;;;;;;-3.77;100.00;100348.16;4468952;32;20128;-72
2022/01/19 03:50:41;;;;;;;15.27;4.85;;;;;;;-3.88;100.00;100357.62;4468702;32;20123;-71
2022/01/19 03:53:09;;;;;;;11.93;5.37;;;;;;;-3.92;100.00;100346.56;4469071;32;20092;-72
2022/01/19 03:55:36;;;;;;;17.95;6.62;;;;;;;-3.87;100.00;100347.38;4468630;32;20477;-71
2022/01/19 03:58:03;;;;;;;17.27;4.62;;;;;;;-3.88;100.00;100343.09;4468963;32;20650;-72
2022/01/19 04:00:34;;;;;;;11.60;4.43;;;;;;;-3.79;100.00;100340.47;4471372;32;20096;-72
2022/01/19 04:03:05;;;;;;;14.35;5.07;;;;;;;-3.85;100.00;100350.75;4484308;31;20602;-72
2022/01/19 04:05:43;;;;;;;15.45;4.65;;;;;;;-3.85;100.00;100344.78;4484702;31;20156;-72
2022/01/19 04:08:10;;;;;;;13.68;5.05;;;;;;;-3.85;100.00;100350.75;4484407;32;20111;-72
2022/01/19 04:10:39;;;;;;;15.20;5.10;;;;;;;-3.87;100.00;100339.69;4484429;31;20092;-72
2022/01/19 04:13:22;;;;;;;24.15;5.45;;;;;;;-3.89;100.00;100340.53;4484598;31;20105;-72
2022/01/19 04:15:50;;;;;;;21.92;5.55;;;;;;;-3.97;100.00;100351.66;4484638;31;20085;-72
2022/01/19 04:18:18;;;;;;;15.73;6.28;;;;;;;-4.03;100.00;100346.56;4484324;31;20167;-72
2022/01/19 04:20:49;;;;;;;14.52;5.20;;;;;;;-4.10;100.00;100350.03;4483935;31;20397;-72
2022/01/19 04:23:18;;;;;;;21.40;5.72;;;;;;;-4.03;100.00;100348.28;4484352;31;20089;-72
2022/01/19 04:25:46;;;;;;;18.45;5.85;;;;;;;-3.92;100.00;100341.44;4483936;31;20085;-72
2022/01/19 04:28:14;;;;;;;32.00;7.50;;;;;;;-3.99;100.00;100334.63;4484091;31;20092;-72
2022/01/19 04:30:42;;;;;;;26.98;9.43;;;;;;;-4.05;100.00;100332.94;4484421;31;20160;-72
2022/01/19 04:33:17;;;;;;;23.77;7.05;;;;;;;-3.94;100.00;100330.31;4484211;31;20092;-72
2022/01/19 04:35:49;;;;;;;19.55;7.10;;;;;;;-4.02;100.00;100326.97;4486237;32;20450;-72
2022/01/19 05:15:50;;;;;;;20.73;5.20;;;;;;;-4.21;100.00;100304.03;4485743;32;20087;-72
2022/01/19 05:18:18;;;;;;;14.15;5.00;;;;;;;-4.20;100.00;100303.12;4485762;31;20119;-72
2022/01/19 05:20:47;;;;;;;20.23;6.53;;;;;;;-4.15;100.00;100300.56;4485249;31;20165;-72
2022/01/19 05:23:17;;;;;;;13.40;6.85;;;;;;;-4.20;100.00;100302.28;4485963;31;20113;-72
2022/01/19 05:25:45;;;;;;;27.25;5.15;;;;;;;-4.30;100.00;100304.03;4485389;31;20100;-72
2022/01/19 05:28:12;;;;;;;21.25;5.97;;;;;;;-4.11;100.00;100299.69;4485745;31;20080;-72
2022/01/19 05:30:40;;;;;;;12.82;4.93;;;;;;;-4.19;100.00;100302.28;4485718;31;20104;-72
2022/01/19 05:33:08;;;;;;;20.92;5.60;;;;;;;-4.36;100.00;100302.38;4485549;32;20125;-72
2022/01/19 05:35:36;;;;;;;19.08;4.65;;;;;;;-4.29;100.00;100305.72;4486005;31;20115;-72
2022/01/19 05:38:03;;;;;;;15.88;5.10;;;;;;;-4.26;100.00;100300.59;4485598;32;20586;-72
2022/01/19 05:40:31;;;;;;;17.52;5.53;;;;;;;-4.16;100.00;100304.00;4485385;31;20100;-72
2022/01/19 05:42:59;;;;;;;19.27;5.32;;;;;;;-4.20;100.00;100295.47;4485319;31;20130;-72
2022/01/19 05:45:27;;;;;;;12.07;5.70;;;;;;;-4.18;100.00;100300.56;4485307;31;20426;-72
2022/01/19 05:47:54;;;;;;;23.48;5.50;;;;;;;-4.26;100.00;100297.22;4485533;31;20153;-72
2022/01/19 05:50:22;;;;;;;26.50;5.57;;;;;;;-4.36;100.00;100298.94;4485647;31;20092;-72
2022/01/19 05:52:50;;;;;;;19.45;5.95;;;;;;;-4.37;100.00;100297.25;4485786;31;20100;-72
2022/01/19 05:55:18;;;;;;;12.45;5.28;;;;;;;-4.41;100.00;100298.13;4485571;31;20180;-72
2022/01/19 05:57:45;;;;;;;16.75;6.15;;;;;;;-4.36;100.00;100294.69;4485549;31;20091;-72
2022/01/19 06:00:13;;;;;;;25.20;5.75;;;;;;;-4.35;100.00;100292.97;4485616;31;20096;-72
2022/01/19 06:02:49;;;;;;;16.30;5.43;;;;;;;-4.48;100.00;100303.25;4485308;31;20096;-73
2022/01/19 06:05:18;;;;;;;15.85;5.57;;;;;;;-4.53;100.00;100306.66;4485661;31;20442;-72
2022/01/19 06:07:48;;;;;;;18.55;5.32;;;;;;;-4.50;100.00;100304.09;4485350;31;20097;-72
2022/01/19 06:13:02;;;;;;;19.50;7.28;;;;;;;-4.59;100.00;100304.97;4470036;32;20485;-72
2022/01/19 06:15:29;;;;;;;18.83;7.12;;;;;;;-4.47;100.00;100309.19;4469984;32;20126;-72
2022/01/19 06:17:56;;;;;;;17.90;6.93;;;;;;;-4.57;100.00;100312.63;4469945;32;20460;-72
2022/01/19 06:20:24;;;;;;;22.42;5.03;;;;;;;-4.50;100.00;100312.63;4472617;32;20464;-72
2022/01/19 06:22:52;;;;;;;13.77;5.25;;;;;;;-4.48;100.00;100307.50;4485726;31;20104;-72
2022/01/19 06:25:19;;;;;;;21.48;6.60;;;;;;;-4.43;100.00;100315.19;4485649;31;20096;-72
2022/01/19 06:27:47;;;;;;;20.00;5.50;;;;;;;-4.42;100.00;100306.62;4485137;31;20149;-72
2022/01/19 06:30:14;;;;;;;21.98;6.57;;;;;;;-4.42;100.00;100330.53;4485459;31;20089;-72
2022/01/19 06:32:41;;;;;;;24.52;6.15;;;;;;;-4.55;100.00;100316.91;4484863;31;20163;-72
2022/01/19 06:35:09;;;;;;;21.80;6.55;;;;;;;-4.52;100.00;100319.44;4483844;31;20114;-71
2022/01/19 06:37:37;;;;;;;19.62;6.28;;;;;;;-4.50;100.00;100320.28;4477030;32;20096;-74
2022/01/19 06:40:06;;;;;;;21.00;6.50;;;;;;;-4.53;100.00;100320.28;4484050;31;20505;-73
2022/01/19 06:42:36;;;;;;;22.45;6.62;;;;;;;-4.50;100.00;100317.72;4484295;31;20156;-73
2022/01/19 06:45:04;;;;;;;10.02;4.93;;;;;;;-4.62;100.00;100312.66;4483441;31;20163;-73
2022/01/19 06:47:32;;;;;;;16.77;6.07;;;;;;;-4.60;100.00;100312.66;4481749;31;20116;-73
2022/01/19 06:50:00;;;;;;;16.98;6.37;;;;;;;-4.68;100.00;100298.19;4474625;32;20131;-73
2022/01/19 06:52:28;;;;;;;19.37;6.10;;;;;;;-4.47;100.00;100299.84;4478958;32;20184;-73
2022/01/19 06:54:56;;;;;;;29.08;6.70;;;;;;;-4.50;100.00;100302.38;4484613;31;20120;-73
2022/01/19 06:57:23;;;;;;;20.80;6.50;;;;;;;-4.51;100.00;100303.25;4487512;31;20110;-74
2022/01/19 06:59:51;;;;;;;24.83;7.10;;;;;;;-4.37;100.00;100294.69;4482582;31;20451;-74
2022/01/19 07:02:20;;;;;;;12.73;5.30;;;;;;;-4.31;100.00;100287.00;4481520;31;20130;-73
2022/01/19 07:04:49;;;;;;;16.20;5.40;;;;;;;-4.16;100.00;100289.47;4477504;31;20103;-73
2022/01/19 07:07:18;;;;;;;17.98;7.12;;;;;;;-3.99;100.00;100296.22;4479257;31;20110;-73
2022/01/19 07:09:46;;;;;;;18.20;6.12;;;;;;;-4.00;100.00;100295.34;4478315;31;20120;-72
2022/01/19 07:12:14;;;;;;;23.52;6.37;;;;;;;-3.96;100.00;100280.84;4480997;31;20100;-72
2022/01/19 07:14:42;;;;;;;17.62;6.32;;;;;;;-3.90;100.00;100283.38;4479661;31;20458;-72
2022/01/19 07:17:09;;;;;;;16.98;6.70;;;;;;;-3.71;100.00;100275.56;4480335;31;20462;-72
2022/01/19 07:19:37;;;;;;;21.92;7.05;;;;;;;-3.71;100.00;100278.97;4474923;31;20514;-72
2022/01/19 07:22:05;;;;;;;17.98;6.10;;;;;;;-3.60;100.00;100268.69;4479199;31;20091;-72
2022/01/19 07:24:33;;;;;;;16.55;6.75;;;;;;;-3.47;100.00;100274.56;4481627;31;20473;-72
2022/01/19 07:27:00;;;;;;;17.85;7.50;;;;;;;-3.41;100.00;100264.25;4481529;31;20228;-72
2022/01/19 07:29:28;;;;;;;20.27;6.68;;;;;;;-3.34;100.00;100260.78;4479381;31;20139;-72
2022/01/19 07:31:57;;;;;;;20.02;7.43;;;;;;;-3.24;100.00;100262.41;4479497;31;20145;-73
2022/01/19 07:34:25;;;;;;;19.70;7.82;;;;;;;-3.16;100.00;100258.91;4482988;31;20096;-72
2022/01/19 07:36:53;;;;;;;19.95;6.97;;;;;;;-3.05;100.00;100257.97;4483147;31;20076;-72
2022/01/19 07:39:22;;;;;;;28.00;8.68;;;;;;;-2.91;100.00;100259.53;4480167;31;20096;-72
2022/01/19 07:41:50;;;;;;;24.80;8.50;;;;;;;-2.68;99.62;100242.22;4482387;31;20096;-73
2022/01/19 07:44:22;;;;;;;18.87;6.15;;;;;;;-2.68;98.39;100238.78;4478484;32;20088;-73
2022/01/19 07:46:52;;;;;;;24.92;7.55;;;;;;;-2.56;97.30;100240.34;4480004;31;20076;-73
2022/01/19 07:49:20;;;;;;;20.55;8.27;;;;;;;-2.52;97.32;100247.16;4476676;31;20178;-73
2022/01/19 07:51:50;;;;;;;24.73;7.47;;;;;;;-2.32;96.72;100240.06;4474056;32;20130;-72
2022/01/19 07:54:17;;;;;;;15.55;6.70;;;;;;;-2.19;95.99;100239.91;4480718;31;20533;-72
2022/01/19 07:56:47;;;;;;;19.67;6.75;;;;;;;-1.98;94.91;100238.78;4483726;31;20100;-76
2022/01/19 07:59:15;;;;;;;22.95;6.80;;;;;;;-1.91;94.52;100239.53;4476804;32;20101;-73
2022/01/19 08:01:43;;;;;;;27.65;7.28;;;;;;;-1.81;94.74;100243.66;4479976;31;20115;-73
2022/01/19 08:04:15;;;;;;;15.88;5.78;;;;;;;-1.70;94.02;100243.50;4480152;32;20116;-73
2022/01/19 08:06:42;;;;;;;18.23;6.12;;;;;;;-1.59;93.83;100235.62;4473232;31;20800;-74
2022/01/19 08:09:09;;;;;;;23.40;6.40;;;;;;;-1.63;93.68;100233.09;4479406;31;20097;-73
2022/01/19 08:11:37;;;;;;;18.95;5.82;;;;;;;-1.49;91.87;100232.88;4482654;31;20453;-74
2022/01/19 08:14:09;;;;;;;21.17;5.72;;;;;;;-1.52;91.89;100237.22;4482337;31;20160;-73
2022/01/19 08:16:37;;;;;;;21.52;6.22;;;;;;;-1.43;92.41;100242.22;4486078;31;20203;-74
2022/01/19 08:19:04;;;;;;;21.73;6.40;;;;;;;-1.44;92.79;100238.81;4479809;31;20181;-73
2022/01/19 08:21:32;;;;;;;18.20;6.03;;;;;;;-1.49;92.27;100222.59;4481509;31;20119;-73
2022/01/19 08:24:00;;;;;;;12.60;5.93;;;;;;;-1.42;93.29;100228.50;4483404;31;20126;-73
2022/01/19 08:26:27;;;;;;;18.90;6.60;;;;;;;-1.24;91.37;100227.34;4484254;31;20088;-74
2022/01/19 08:28:55;;;;;;;13.18;6.10;;;;;;;-1.25;91.56;100230.78;4484010;31;20104;-72
2022/01/19 08:31:23;;;;;;;19.90;5.90;;;;;;;-1.12;90.27;100221.09;4483163;31;20176;-73
2022/01/19 08:33:52;;;;;;;21.48;6.45;;;;;;;-1.25;91.17;100212.78;4480992;31;20092;-73
2022/01/19 08:36:21;;;;;;;23.38;6.37;;;;;;;-1.07;90.40;100222.72;4482927;31;20119;-72
2022/01/19 08:38:50;;;;;;;20.85;6.18;;;;;;;-0.96;90.51;100230.25;4483227;32;20100;-72
2022/01/19 08:41:18;;;;;;;17.35;6.18;;;;;;;-1.19;91.28;100229.81;4482305;32;20095;-71
2022/01/19 08:43:47;;;;;;;21.08;7.45;;;;;;;-1.05;90.42;100227.00;4482974;32;20472;-72
2022/01/19 08:46:15;;;;;;;19.55;6.15;;;;;;;-0.93;90.23;100231.91;4481927;31;20104;-72
2022/01/19 08:48:43;;;;;;;21.85;7.57;;;;;;;-0.92;89.69;100236.19;4484384;31;20434;-72
2022/01/19 08:51:11;;;;;;;17.77;5.87;;;;;;;-0.90;89.93;100229.28;4484099;31;20099;-72
2022/01/19 08:53:40;;;;;;;18.00;6.47;;;;;;;-0.90;89.40;100229.28;4479406;32;20104;-73
2022/01/19 08:56:08;;;;;;;21.92;6.53;;;;;;;-0.84;89.32;100230.91;4481838;31;20099;-72
2022/01/19 08:58:35;;;;;;;16.95;6.57;;;;;;;-0.68;90.07;100234.03;4473424;31;20105;-72
2022/01/19 09:01:03;;;;;;;22.10;7.18;;;;;;;-0.62;88.98;100228.75;4480615;31;20118;-72
2022/01/19 09:03:30;;;;;;;16.65;6.50;;;;;;;-0.61;88.39;100228.72;4482942;32;20520;-72
2022/01/19 09:05:58;;;;;;;19.90;6.12;;;;;;;-0.66;88.72;100227.97;4482336;31;20104;-72
2022/01/19 09:08:25;;;;;;;22.15;6.95;;;;;;;-0.65;88.34;100216.81;4479255;32;20096;-72
2022/01/19 09:10:57;;;;;;;18.23;6.05;;;;;;;-0.72;87.72;100220.37;4483063;31;20100;-72
2022/01/19 09:13:25;;;;;;;24.35;7.10;;;;;;;-0.65;87.67;100221.09;4480717;32;20092;-72
2022/01/19 09:15:53;;;;;;;18.87;6.62;;;;;;;-0.54;87.64;100222.56;4482500;32;21013;-73
2022/01/19 09:18:21;;;;;;;16.12;6.47;;;;;;;-0.52;87.56;100226.84;4479342;32;20180;-72
2022/01/19 09:20:48;;;;;;;15.82;6.50;;;;;;;-0.49;87.19;100222.47;4480516;31;20455;-72
2022/01/19 09:23:16;;;;;;;16.48;7.07;;;;;;;-0.34;86.83;100223.06;4482584;32;20122;-72
2022/01/19 09:25:43;;;;;;;18.35;6.50;;;;;;;-0.40;86.27;100218.88;4482850;31;20122;-72
2022/01/19 09:28:11;;;;;;;30.75;7.45;;;;;;;-0.32;86.85;100229.84;4481171;31;20131;-72
2022/01/19 09:30:41;;;;;;;24.73;7.07;;;;;;;-0.44;87.02;100228.41;4479554;31;20481;-72
2022/01/19 09:33:19;;;;;;;24.48;6.43;;;;;;;-0.34;86.03;100223.06;4480461;32;20111;-72
2022/01/19 09:38:29;;;;;;;16.52;6.00;;;;;;;-0.50;86.42;100225.09;4479769;32;20416;-73
2022/01/19 09:40:57;;;;;;;19.45;6.95;;;;;;;-0.47;87.67;100218.16;4482162;31;20166;-73
2022/01/19 09:43:26;;;;;;;18.58;6.87;;;;;;;-0.47;86.67;100205.31;4479665;31;20805;-73
2022/01/19 09:45:56;;;;;;;20.75;6.47;;;;;;;-0.60;88.38;100209.00;4482587;31;20088;-73
2022/01/19 09:48:24;;;;;;;22.40;6.30;;;;;;;-0.29;86.80;100214.34;4475764;32;20787;-73
2022/01/19 09:50:51;;;;;;;22.25;7.15;;;;;;;-0.28;85.34;100199.75;4478992;32;20156;-73
2022/01/19 09:53:19;;;;;;;19.95;6.78;;;;;;;-0.17;85.31;100197.78;4480491;31;20201;-73
2022/01/19 09:55:47;;;;;;;25.55;6.30;;;;;;;-0.06;84.67;100193.25;4478300;31;20156;-73
2022/01/19 09:58:16;;;;;;;20.37;5.85;;;;;;;0.03;83.04;100188.75;4477560;32;20494;-73
2022/01/19 10:00:43;;;;;;;20.73;7.07;;;;;;;-0.01;83.75;100177.69;4477824;31;20096;-73
2022/01/19 10:03:25;;;;;;;13.23;5.65;;;;;;;0.05;83.32;100172.37;4479615;31;20091;-73
2022/01/19 10:05:53;;;;;;;20.27;7.03;;;;;;;0.12;82.36;100168.78;4473268;32;20711;-72
2022/01/19 10:08:47;;;;;;;20.48;6.45;;;;;;;0.16;81.87;100159.25;4478029;31;20109;-73
2022/01/19 10:11:26;;;;;;;16.83;6.05;;;;;;;0.33;81.72;100151.97;4475424;32;20108;-72
2022/01/19 10:17:01;;;;;;;15.63;5.53;;;;;;;0.35;81.37;100144.19;4480151;31;20469;-72
2022/01/19 10:19:44;;;;;;;16.30;5.85;;;;;;;0.26;81.06;100128.94;4480936;32;20806;-72
2022/01/19 10:22:17;;;;;;;21.83;5.87;;;;;;;0.40;81.52;100138.91;4483314;31;20100;-73
2022/01/19 10:25:02;;;;;;;25.02;6.18;;;;;;;0.46;80.44;100139.59;4472972;32;20096;-72
2022/01/19 10:27:32;;;;;;;17.65;6.15;;;;;;;0.58;80.12;100116.97;4484144;31;20464;-71
2022/01/19 10:30:03;;;;;;;19.27;6.35;;;;;;;0.63;79.11;100112.53;4487855;31;20144;-71
2022/01/19 10:32:37;;;;;;;18.10;7.18;;;;;;;0.69;78.87;100112.34;4481335;31;20192;-71
2022/01/19 10:35:27;;;;;;;19.17;6.57;;;;;;;0.82;79.10;100102.56;4481021;31;20103;-71
2022/01/19 10:38:19;;;;;;;17.70;7.30;;;;;;;0.84;78.28;100091.28;4479652;31;20088;-71
2022/01/19 10:40:59;;;;;;;18.65;6.93;;;;;;;0.92;77.51;100092.81;4477113;32;20109;-72
2022/01/19 10:43:40;;;;;;;17.00;5.43;;;;;;;1.01;77.77;100095.97;4475579;32;20097;-72
2022/01/19 10:46:26;;;;;;;14.93;6.60;;;;;;;0.97;77.44;100086.66;4477912;32;20509;-71
2022/01/19 10:48:59;;;;;;;17.30;6.05;;;;;;;0.93;78.36;100074.72;4475572;32;20615;-72
2022/01/19 10:51:45;;;;;;;17.98;6.35;;;;;;;0.93;78.54;100074.72;4473428;31;20152;-71
2022/01/19 10:54:16;;;;;;;18.05;6.22;;;;;;;1.00;78.53;100060.75;4478727;31;20576;-72
2022/01/19 10:56:48;;;;;;;18.35;6.37;;;;;;;1.06;79.19;100057.16;4476084;32;20099;-71
2022/01/19 10:59:17;;;;;;;13.80;6.87;;;;;;;1.21;79.37;100059.28;4474638;31;20088;-72
2022/01/19 11:01:48;;;;;;;14.10;6.75;;;;;;;1.25;78.65;100057.44;4476436;31;20118;-72
2022/01/19 11:04:19;;;;;;;18.33;7.47;;;;;;;1.38;78.29;100042.44;4481505;31;20499;-71
2022/01/19 11:06:48;;;;;;;20.95;7.32;;;;;;;1.49;78.87;100035.19;4484755;31;20160;-72
2022/01/19 11:09:15;;;;;;;29.45;7.00;;;;;;;1.42;78.48;100031.09;4494711;31;20126;-72
2022/01/19 11:11:46;;;;;;;17.67;6.50;;;;;;;1.45;78.44;100031.00;4471996;32;20120;-71
2022/01/19 11:14:16;;;;;;;21.25;7.43;;;;;;;1.49;77.50;100030.03;4481028;31;20096;-71
2022/01/19 11:16:43;;;;;;;22.37;6.82;;;;;;;1.51;77.46;100020.47;4481017;32;20462;-71
2022/01/19 11:19:12;;;;;;;23.85;8.27;;;;;;;1.64;77.37;100014.94;4475938;32;20148;-71
2022/01/19 11:22:18;;;;;;;20.45;7.55;;;;;;;1.72;77.51;100005.19;4478351;31;20155;-72
2022/01/19 11:25:13;;;;;;;23.70;6.82;;;;;;;1.71;77.01;100006.06;4437630;32;20120;-71
2022/01/19 11:28:00;;;;;;;16.92;6.40;;;;;;;1.95;76.74;99994.09;4447680;32;20123;-71
2022/01/19 11:30:33;;;;;;;16.85;6.10;;;;;;;2.12;75.87;99990.94;4447007;32;20140;-72
2022/01/19 11:33:14;;;;;;;15.65;5.70;;;;;;;2.20;75.57;99988.09;4442657;32;20496;-72
2022/01/19 11:35:47;;;;;;;14.20;5.40;;;;;;;2.25;74.10;99978.41;4443798;32;20652;-72
2022/01/19 11:38:38;;;;;;;18.15;5.93;;;;;;;2.15;74.22;99984.78;4443657;32;20194;-72
2022/01/19 11:41:08;;;;;;;13.30;5.45;;;;;;;2.05;74.35;99974.78;4448524;32;20185;-72
2022/01/19 11:43:51;;;;;;;14.87;6.00;;;;;;;2.26;74.11;99970.59;4447331;32;20121;-72
2022/01/19 11:46:39;;;;;;;18.37;6.05;;;;;;;2.28;73.93;99961.03;4429917;32;20097;-72
2022/01/19 11:49:10;;;;;;;13.68;5.20;;;;;;;2.45;73.63;99955.28;4438131;32;20117;-72
2022/01/19 11:51:38;;;;;;;15.13;5.75;;;;;;;2.47;71.93;99965.56;4444122;32;20120;-73
2022/01/19 11:54:05;;;;;;;12.77;4.60;;;;;;;2.37;72.47;99954.69;4439811;32;20108;-73
2022/01/19 11:56:58;;;;;;;16.20;5.70;;;;;;;2.42;72.46;99959.69;4443357;32;20143;-71
2022/01/19 11:59:27;;;;;;;13.93;5.15;;;;;;;2.42;71.77;99951.94;4446313;32;20113;-71
2022/01/19 12:02:28;;;;;;;11.82;5.03;;;;;;;2.45;71.41;99952.69;4462066;32;20485;-73
2022/01/19 12:05:22;;;;;;;12.48;5.55;;;;;;;2.48;71.63;99949.13;4480889;32;20131;-72
2022/01/19 12:08:01;;;;;;;10.05;4.57;;;;;;;2.43;nan;99943.28;4481788;32;20115;-73
2022/01/19 12:10:31;;;;;;;15.45;5.85;;;;;;;2.64;72.32;99942.47;4475736;32;20149;-72
2022/01/19 12:13:17;;;;;;;11.50;5.03;;;;;;;2.67;71.76;99942.38;4476039;32;20382;-72
2022/01/19 12:15:52;;;;;;;11.50;5.00;;;;;;;2.81;71.41;99941.00;4478594;32;20103;-72
2022/01/19 12:18:41;;;;;;;17.98;5.62;;;;;;;2.60;71.15;99925.37;4478617;31;20792;-72
2022/01/19 12:21:11;;;;;;;13.93;5.25;;;;;;;2.72;70.71;99908.56;4482359;31;20159;-72
2022/01/19 12:23:39;;;;;;;15.23;5.47;;;;;;;2.70;71.26;99914.72;4482019;32;20097;-72
2022/01/19 12:26:07;;;;;;;13.25;4.80;;;;;;;2.91;71.28;99918.22;4483330;31;20108;-73
2022/01/19 12:28:54;;;;;;;18.87;5.43;;;;;;;3.08;69.99;99909.78;4482656;31;20124;-72
2022/01/19 12:31:24;;;;;;;12.82;5.65;;;;;;;3.10;70.01;99900.19;4483487;31;20081;-73
2022/01/19 12:34:14;;;;;;;16.98;5.50;;;;;;;3.13;69.79;99897.47;4483013;31;20152;-72
2022/01/19 12:36:54;;;;;;;14.45;4.68;;;;;;;3.06;70.10;99911.56;4483430;31;20085;-71
2022/01/19 12:39:24;;;;;;;15.93;5.80;;;;;;;2.95;69.94;99904.22;4483890;32;20152;-72
2022/01/19 12:42:05;;;;;;;13.90;5.15;;;;;;;3.01;69.64;99897.06;4482771;31;20084;-72
2022/01/19 12:44:35;;;;;;;13.25;5.93;;;;;;;2.95;69.25;99884.38;4468227;32;20093;-72
2022/01/19 12:47:24;;;;;;;13.35;5.15;;;;;;;3.05;69.85;99879.66;4467146;32;20089;-72
2022/01/19 12:50:03;;;;;;;14.25;5.22;;;;;;;3.10;69.65;99885.50;4420671;32;20513;-72
2022/01/19 12:52:33;;;;;;;13.93;5.00;;;;;;;3.26;70.22;99870.19;4430464;32;20934;-72
2022/01/19 12:55:15;;;;;;;14.27;5.47;;;;;;;3.23;70.74;99866.88;4427677;32;20169;-72
2022/01/19 12:57:42;;;;;;;14.18;5.53;;;;;;;3.30;70.96;99860.53;4429203;32;20136;-73
2022/01/19 13:00:13;;;;;;;12.88;5.03;;;;;;;3.46;70.21;99865.91;4429649;32;20276;-73